createdAt,value
2022-11-17T00:03:52.198Z,65430.50
2022-11-17T00:08:57.767Z,65438.59
2022-11-17T00:14:24.939Z,65400.69
2022-11-17T00:19:50.151Z,65393.84
2022-11-17T00:24:54.917Z,65419.88
2022-11-17T00:29:59.664Z,65364.47
2022-11-17T00:35:08.839Z,65351.88
2022-11-17T00:40:15.269Z,65402.28
2022-11-17T00:45:20.078Z,65458.31
2022-11-17T00:50:25.999Z,65375.63
2022-11-17T00:55:30.180Z,65392.06
2022-11-17T01:00:34.983Z,65397.59
2022-11-17T01:05:43.452Z,65414.44
2022-11-17T01:10:50.854Z,65389.50
2022-11-17T01:15:55.519Z,65412.41
2022-11-17T01:21:09.616Z,65339.97
2022-11-17T01:26:16.079Z,65366.59
2022-11-17T01:31:23.636Z,65391.63
2022-11-17T01:36:31.325Z,65380.53
2022-11-17T01:41:42.312Z,65426.03
2022-11-17T01:46:47.574Z,65419.56
2022-11-17T01:51:57.280Z,65411.44
2022-11-17T01:57:06.731Z,65393.75
2022-11-17T02:02:11.502Z,65404.84
2022-11-17T02:07:26.147Z,65390.66
2022-11-17T02:12:33.122Z,65361.28
2022-11-17T02:17:41.807Z,65309.41
2022-11-17T02:23:20.404Z,65317.19
2022-11-17T02:28:29.341Z,65366.50
2022-11-17T02:33:45.093Z,65428.47
2022-11-17T02:38:56.692Z,65367.03
2022-11-17T02:44:12.521Z,65382.03
2022-11-17T02:49:22.108Z,65377.13
2022-11-17T02:54:30.818Z,65346.88
2022-11-17T02:59:43.349Z,65367.75
2022-11-17T03:04:57.534Z,65413.91
2022-11-17T03:10:13.284Z,65414.53
2022-11-17T03:15:29.625Z,65359.16
2022-11-17T03:20:41.594Z,65372.03
2022-11-17T03:25:52.342Z,65341.88
2022-11-17T03:31:00.803Z,65363.50
2022-11-17T03:36:09.794Z,65340.94
2022-11-17T03:41:18.695Z,65414.00
2022-11-17T03:46:47.982Z,65364.38
2022-11-17T03:51:59.847Z,65335.91
2022-11-17T03:57:33.980Z,65306.88
2022-11-17T04:03:35.733Z,65304.09
2022-11-17T04:08:59.721Z,65331.25
2022-11-17T04:14:39.572Z,65351.59
2022-11-17T04:20:14.957Z,65321.34
2022-11-17T04:31:23.346Z,65276.00
2022-11-17T04:36:51.527Z,65351.69
2022-11-17T04:42:06.659Z,65348.59
2022-11-17T04:47:22.690Z,65303.16
2022-11-17T04:52:30.001Z,65314.75
2022-11-17T04:57:34.738Z,65294.19
2022-11-17T05:02:40.734Z,65245.13
2022-11-17T05:07:44.822Z,65266.63
2022-11-17T05:13:06.591Z,65239.94
2022-11-17T05:18:12.360Z,65224.50
2022-11-17T05:23:38.140Z,65236.22
2022-11-17T05:28:42.990Z,65205.47
2022-11-17T05:33:49.727Z,65244.06
2022-11-17T05:38:54.808Z,65259.63
2022-11-17T05:43:59.830Z,65260.69
2022-11-17T05:49:12.205Z,65288.34
2022-11-17T05:54:16.689Z,65271.22
2022-11-17T05:59:28.430Z,65275.59
2022-11-17T06:04:35.924Z,65193.66
2022-11-17T06:09:43.618Z,65224.09
2022-11-17T06:14:48.215Z,65263.88
2022-11-17T06:32:07.300Z,65215.34
2022-11-17T06:43:30.481Z,65226.75
2022-11-17T06:49:05.268Z,65260.78
2022-11-17T06:54:21.777Z,65250.03
2022-11-17T06:59:42.963Z,65256.31
2022-11-17T07:05:02.319Z,65278.66
2022-11-17T07:10:10.464Z,65315.47
2022-11-17T07:15:16.258Z,65338.69
2022-11-17T07:20:22.090Z,65355.84
2022-11-17T07:25:29.166Z,65334.53
2022-11-17T07:30:34.160Z,65370.09
2022-11-17T07:35:39.943Z,65401.84
2022-11-17T07:40:43.996Z,65317.63
2022-11-17T07:45:48.408Z,65332.41
2022-11-17T07:50:54.176Z,65247.59
2022-11-17T07:55:58.381Z,65276.75
2022-11-17T08:01:06.406Z,65291.97
2022-11-17T08:06:13.917Z,65357.00
2022-11-17T08:11:19.519Z,65311.75
2022-11-17T08:16:25.763Z,65324.97
2022-11-17T08:21:31.527Z,65290.91
2022-11-17T08:26:35.656Z,65312.28
2022-11-17T08:31:41.658Z,65292.06
2022-11-17T08:36:48.714Z,65284.63
2022-11-17T08:41:53.163Z,65246.31
2022-11-17T08:46:57.379Z,65292.59
2022-11-17T08:52:03.015Z,65252.59
2022-11-17T08:57:07.336Z,65359.03
2022-11-17T09:02:13.294Z,65336.25
2022-11-17T09:07:19.069Z,65250.47
2022-11-17T09:12:25.480Z,65360.31
2022-11-17T09:17:38.790Z,65372.97
2022-11-17T09:22:44.789Z,65318.25
2022-11-17T09:27:54.905Z,65312.81
2022-11-17T09:33:01.421Z,65317.72
2022-11-17T09:38:13.996Z,65342.53
2022-11-17T09:43:30.263Z,65287.38
2022-11-17T09:48:51.202Z,65378.41
2022-11-17T09:55:39.134Z,65367.56
2022-11-17T10:01:22.891Z,65332.00
2022-11-17T10:06:33.855Z,65389.91
2022-11-17T10:11:49.055Z,65327.41
2022-11-17T10:17:01.871Z,65295.38
2022-11-17T10:22:20.822Z,65300.06
2022-11-17T10:27:28.272Z,65333.69
2022-11-17T10:32:37.829Z,65331.88
2022-11-17T10:37:46.821Z,65355.41
2022-11-17T10:43:01.891Z,65253.75
2022-11-17T10:48:18.496Z,65314.41
2022-11-17T10:53:42.959Z,65303.78
2022-11-17T10:59:05.707Z,65363.94
2022-11-17T11:04:30.846Z,65391.63
2022-11-17T11:09:41.494Z,65325.81
2022-11-17T11:14:52.601Z,65321.44
2022-11-17T11:19:58.967Z,65297.94
2022-11-17T11:25:12.295Z,65285.16
2022-11-17T11:30:18.670Z,65368.19
2022-11-17T11:35:54.361Z,65403.34
2022-11-17T11:41:12.905Z,65371.19
2022-11-17T11:46:25.812Z,65318.69
2022-11-17T11:51:38.442Z,65310.25
2022-11-17T11:56:46.156Z,65396.94
2022-11-17T12:02:00.626Z,65369.69
2022-11-17T12:07:17.887Z,65343.59
2022-11-17T12:13:20.447Z,65335.50
2022-11-17T12:18:55.386Z,65346.34
2022-11-17T12:24:47.302Z,65350.53
2022-11-17T12:29:57.067Z,65328.16
2022-11-17T12:35:26.085Z,65317.50
2022-11-17T12:40:54.081Z,65271.31
2022-11-17T12:46:26.297Z,65331.47
2022-11-17T12:51:45.191Z,65353.81
2022-11-17T12:57:01.603Z,65371.38
2022-11-17T13:02:25.476Z,65329.88
2022-11-17T13:07:31.386Z,65378.84
2022-11-17T13:12:37.577Z,65334.66
2022-11-17T13:17:44.128Z,65294.72
2022-11-17T13:23:01.624Z,65335.28
2022-11-17T13:28:06.231Z,65307.50
2022-11-17T13:33:21.091Z,65334.53
2022-11-17T13:38:26.560Z,65299.09
2022-11-17T13:43:38.086Z,65311.31
2022-11-17T13:48:46.380Z,65262.81
2022-11-17T13:53:55.345Z,65286.63
2022-11-17T13:59:02.922Z,65337.84
2022-11-17T14:04:19.563Z,65344.31
2022-11-17T14:09:26.157Z,65308.88
2022-11-17T14:14:35.513Z,65241.97
2022-11-17T14:19:39.914Z,65283.56
2022-11-17T14:24:45.405Z,65323.47
2022-11-17T14:29:49.497Z,65263.34
2022-11-17T14:34:53.758Z,65272.38
2022-11-17T14:40:00.738Z,65307.91
2022-11-17T14:45:07.957Z,65246.84
2022-11-17T14:50:14.475Z,65247.38
2022-11-17T14:55:22.077Z,65247.81
2022-11-17T15:00:26.018Z,65229.19
2022-11-17T15:05:30.118Z,65332.53
2022-11-17T15:10:35.645Z,65328.81
2022-11-17T15:15:39.735Z,65283.03
2022-11-17T15:20:44.223Z,65319.22
2022-11-17T15:25:49.634Z,65297.28
2022-11-17T15:30:54.000Z,65270.34
2022-11-17T15:36:02.507Z,65230.88
2022-11-17T15:41:09.567Z,65237.91
2022-11-17T15:46:15.259Z,65171.03
2022-11-17T15:51:21.015Z,65208.56
2022-11-17T15:56:26.858Z,65245.13
2022-11-17T16:01:32.823Z,65269.28
2022-11-17T16:06:39.740Z,65247.81
2022-11-17T16:11:45.235Z,65266.41
2022-11-17T16:16:49.846Z,65248.53
2022-11-17T16:21:54.084Z,65223.03
2022-11-17T16:26:59.676Z,65284.09
2022-11-17T16:32:04.914Z,65269.19
2022-11-17T16:37:09.770Z,65336.25
2022-11-17T16:42:15.411Z,65237.81
2022-11-17T16:47:21.839Z,65225.16
2022-11-17T16:52:27.628Z,65246.84
2022-11-17T16:57:33.411Z,65214.28
2022-11-17T17:02:37.938Z,65184.19
2022-11-17T17:07:42.291Z,65256.84
2022-11-17T17:12:47.952Z,65199.94
2022-11-17T17:17:59.472Z,65204.84
2022-11-17T17:23:05.413Z,65161.97
2022-11-17T17:28:11.310Z,65170.59
2022-11-17T17:33:15.243Z,65222.38
2022-11-17T17:38:19.785Z,65189.41
2022-11-17T17:43:25.597Z,65204.31
2022-11-17T17:48:31.763Z,65278.34
2022-11-17T17:53:37.544Z,65272.06
2022-11-17T17:58:43.080Z,65211.75
2022-11-17T18:03:49.199Z,65270.25
2022-11-17T18:08:54.828Z,65178.78
2022-11-17T18:14:00.598Z,65309.63
2022-11-17T18:19:08.456Z,65264.94
2022-11-17T18:24:13.644Z,65303.25
2022-11-17T18:29:21.729Z,65275.25
2022-11-17T18:34:26.818Z,65283.97
2022-11-17T18:39:33.403Z,65350.94
2022-11-17T18:44:39.083Z,65386.81
2022-11-17T18:49:43.241Z,65320.81
2022-11-17T18:54:47.686Z,65262.28
2022-11-17T18:59:53.456Z,65291.88
2022-11-17T19:04:59.131Z,65274.41
2022-11-17T19:10:05.954Z,65255.16
2022-11-17T19:15:13.962Z,65288.97
2022-11-17T19:20:19.505Z,65275.59
2022-11-17T19:25:24.002Z,65234.50
2022-11-17T19:30:29.679Z,65212.81
2022-11-17T19:35:33.908Z,65272.38
2022-11-17T19:40:38.827Z,65299.09
2022-11-17T19:45:44.700Z,65256.84
2022-11-17T19:50:54.458Z,65301.56
2022-11-17T19:56:01.364Z,65389.91
2022-11-17T20:01:12.364Z,65285.56
2022-11-17T20:06:18.877Z,65223.13
2022-11-17T20:11:24.840Z,65234.09
2022-11-17T20:16:31.327Z,65316.00
2022-11-17T20:21:35.391Z,65255.91
2022-11-17T20:26:41.103Z,65243.53
2022-11-17T20:31:46.681Z,65293.66
2022-11-17T20:36:54.478Z,65332.00
2022-11-17T20:41:59.078Z,65332.53
2022-11-17T20:47:07.810Z,65242.59
2022-11-17T20:52:13.529Z,65403.78
2022-11-17T20:57:17.810Z,65263.88
2022-11-17T21:02:23.303Z,65286.75
2022-11-17T21:07:27.584Z,65312.28
2022-11-17T21:12:31.981Z,65322.19
2022-11-17T21:17:54.833Z,65237.19
2022-11-17T21:22:58.942Z,65164.97
2022-11-17T21:28:03.205Z,65261.31
2022-11-17T21:33:08.812Z,65293.13
2022-11-17T21:38:13.964Z,65382.56
2022-11-17T21:43:17.955Z,65261.97
2022-11-17T21:48:23.508Z,65309.00
2022-11-17T21:54:18.476Z,65297.28
2022-11-17T22:00:34.123Z,65216.44
2022-11-17T22:06:37.721Z,65335.19
2022-11-17T22:11:50.336Z,65345.28
2022-11-17T22:23:16.220Z,65305.06
2022-11-17T22:29:02.330Z,65279.31
2022-11-17T22:34:55.502Z,65360.63
2022-11-17T22:47:04.176Z,65386.28
2022-11-17T22:53:11.406Z,65299.44
2022-11-17T22:59:30.313Z,65317.72
2022-11-17T23:05:31.662Z,65289.41
2022-11-17T23:17:12.895Z,65289.06
2022-11-17T23:22:40.151Z,65288.88
2022-11-17T23:28:35.035Z,65235.03
2022-11-17T23:34:31.675Z,65198.03
2022-11-17T23:40:19.576Z,65189.84
2022-11-17T23:45:53.220Z,65283.97
2022-11-17T23:51:50.358Z,65294.84
2022-11-17T23:57:57.983Z,65335.19
